EFRO

Rovaniemi Airport

Rovaniemi, Finland
METAR EFRO 231350Z AUTO 17003KT CAVOK 00/M03 Q0988
Observed Flight Rules
Oct-23 @ 13:50 UTC (42 minutes ago) Visual Flight Rules
Wind Visibility Clouds
170° at 3 knots 10,000+ meters
  • Clear skies
Temperatures Readings
Current 0°C / 32°F
Dewpoint -3°C / 27°F
Humidity 80%
Altimeter 29.17" Hg
Pressure 988 hPa
Elevation 201
METAR EFRO 231350Z AUTO 17003KT CAVOK 00/M03 Q0988
Observed Flight Rules
Oct-23 @ 13:50 UTC
(42 minutes ago)
VFR
Wind Visibility
170° at 3 knots 10,000+ meters
Clouds
  • Clear skies
Temperature Dewpoint
0°C / 32°F -3°C / 27°F
Humidity Altimeter Pressure
80% 29.17" Hg 988 hPa